Terminal Aerodrome Forecast
Issued by NWS Wilmington, OH

Current Version | Previous Version | Text Only | Print | Product List | Glossary Off
Versions: 1 2 3 4 5 6 7 8 9 10 11 12 13 14 15 16 17 18 19 20

776
FTUS41 KILN 082340
TAFCMH
TAF
KCMH 082340Z 0900/0924 25005KT P6SM SCT015 OVC060
      TEMPO 0900/0903 1SM -SN SCT004 BKN015
     FM090400 29009KT P6SM -SN OVC022
     FM091000 28011KT 2SM -SN SCT007 OVC012
     FM091500 28012KT P6SM OVC018
     FM092100 28014G22KT 5SM -SHSN OVC025=

USA.gov is the U.S. government's official web portal to all federal, state and local government web resources and services.